Time;durP1;ratioP1;P1;durP2;ratioP2;P2;SDS_P1;SDS_P2;PMS_P1;PMS_P2;Temp;Humidity;BMP_temperature;BMP_pressure;BME280_temperature;BME280_humidity;BME280_pressure;Samples;Min_cycle;Max_cycle;Signal;HPM_P1;HPM_P2
2022/08/11 00:01:22;;;;;;;5.35;2.72;;;;;;;18.83;56.45;102087.34;5034064;28;20021;-81
2022/08/11 00:03:52;;;;;;;4.68;3.10;;;;;;;18.78;57.04;102084.69;5052596;28;20025;-81
2022/08/11 00:06:38;;;;;;;3.90;2.55;;;;;;;18.77;56.28;102092.00;5051505;28;20024;-81
2022/08/11 00:09:07;;;;;;;10.60;3.00;;;;;;;18.71;57.09;102086.91;5051727;28;20029;-81
2022/08/11 00:11:40;;;;;;;3.00;2.60;;;;;;;18.73;57.48;102077.38;5051308;28;20021;-82
2022/08/11 00:14:20;;;;;;;6.10;2.93;;;;;;;18.69;56.80;102083.66;5034053;28;20310;-81
2022/08/11 00:17:02;;;;;;;5.65;2.78;;;;;;;18.64;57.40;102081.78;5037038;28;20164;-81
2022/08/11 00:19:31;;;;;;;3.30;2.70;;;;;;;18.61;57.88;102085.88;5050131;28;20029;-80
2022/08/11 00:21:57;;;;;;;3.55;2.83;;;;;;;18.52;57.96;102071.28;5049522;28;20029;-81
2022/08/11 00:24:24;;;;;;;6.80;2.72;;;;;;;18.48;58.43;102086.50;5051529;28;20086;-81
2022/08/11 00:26:53;;;;;;;3.85;2.55;;;;;;;18.50;58.10;102080.81;5051679;28;20025;-81
2022/08/11 00:29:20;;;;;;;4.38;2.88;;;;;;;18.39;58.30;102086.28;5051289;28;20036;-81
2022/08/11 00:31:53;;;;;;;3.73;2.57;;;;;;;18.38;57.83;102083.84;5049615;28;20033;-81
2022/08/11 00:34:32;;;;;;;6.83;2.90;;;;;;;18.34;57.78;102080.91;5051619;28;20861;-81
2022/08/11 00:37:09;;;;;;;5.82;2.83;;;;;;;18.32;57.97;102083.06;5051078;28;20036;-81
2022/08/11 00:39:45;;;;;;;4.53;2.80;;;;;;;18.31;58.28;102090.38;5040445;28;20068;-81
2022/08/11 00:42:25;;;;;;;5.43;3.20;;;;;;;18.26;57.87;102087.69;5031395;28;20034;-82
2022/08/11 00:45:14;;;;;;;5.95;3.00;;;;;;;18.23;58.06;102082.03;5030251;28;20025;-81
2022/08/11 00:47:54;;;;;;;3.90;2.63;;;;;;;18.14;59.86;102082.63;5036472;28;20029;-81
2022/08/11 00:50:41;;;;;;;4.20;3.15;;;;;;;18.16;59.62;102085.88;5046135;28;20027;-81
2022/08/11 00:53:32;;;;;;;6.35;2.92;;;;;;;18.11;58.91;102087.78;5031101;28;20033;-81
2022/08/11 00:56:36;;;;;;;4.47;2.80;;;;;;;18.01;59.08;102072.34;5046016;28;20601;-81
2022/08/11 00:59:20;;;;;;;3.43;2.67;;;;;;;17.97;59.34;102072.09;5051249;28;20029;-81
2022/08/11 01:02:16;;;;;;;5.23;2.97;;;;;;;17.94;59.39;102069.91;5050072;28;20332;-81
2022/08/11 01:05:00;;;;;;;10.30;2.95;;;;;;;17.93;59.28;102079.16;5046561;28;20623;-80
2022/08/11 01:08:06;;;;;;;5.43;3.17;;;;;;;17.86;59.60;102073.22;5050029;28;20124;-81
2022/08/11 01:11:00;;;;;;;5.95;3.00;;;;;;;17.85;59.63;102082.44;5032119;28;20032;-81
2022/08/11 01:13:40;;;;;;;9.00;3.28;;;;;;;17.85;60.47;102082.44;5049839;28;20107;-80
2022/08/11 01:16:05;;;;;;;5.00;3.05;;;;;;;17.77;60.49;102078.41;5049294;28;20534;-81
2022/08/11 01:19:13;;;;;;;5.07;3.10;;;;;;;17.74;59.55;102081.66;5032565;28;20036;-80
2022/08/11 01:21:41;;;;;;;4.82;2.85;;;;;;;17.70;60.45;102083.28;5020089;28;20037;-80
2022/08/11 01:24:41;;;;;;;6.75;3.28;;;;;;;17.64;61.01;102081.69;5048942;28;20439;-81
2022/08/11 01:27:38;;;;;;;5.78;2.80;;;;;;;17.53;61.10;102087.13;5050369;28;20047;-81
2022/08/11 01:30:25;;;;;;;10.07;3.67;;;;;;;17.51;60.83;102083.09;5048585;28;20029;-81
2022/08/11 01:33:06;;;;;;;3.60;3.20;;;;;;;17.41;62.22;102083.91;5805671;22;20039;-83
2022/08/11 01:36:24;;;;;;;9.53;3.20;;;;;;;17.41;60.96;102095.56;5049550;28;20298;-80
2022/08/11 01:39:07;;;;;;;5.00;3.35;;;;;;;17.37;62.63;102090.97;5005078;28;20664;-80
2022/08/11 01:44:51;;;;;;;6.90;3.10;;;;;;;17.30;62.28;102091.25;5049305;28;20484;-81
2022/08/11 01:47:50;;;;;;;4.68;2.95;;;;;;;17.29;62.13;102097.75;5049012;28;20083;-80
2022/08/11 01:50:24;;;;;;;4.75;3.38;;;;;;;17.25;62.53;102088.53;5050636;28;20045;-81
2022/08/11 01:53:36;;;;;;;7.25;3.35;;;;;;;17.17;63.05;102084.47;5050346;28;20025;-81
2022/08/11 01:56:17;;;;;;;4.10;3.42;;;;;;;17.17;62.36;102099.91;4948907;28;20050;-82
2022/08/11 01:59:14;;;;;;;5.65;3.42;;;;;;;17.09;62.28;102098.53;5039902;28;20408;-81
2022/08/11 02:02:11;;;;;;;8.83;3.40;;;;;;;17.02;62.30;102093.41;5049918;28;20028;-81
2022/08/11 02:04:41;;;;;;;6.20;3.90;;;;;;;16.95;63.43;102093.69;5048118;28;20394;-82
2022/08/11 02:07:32;;;;;;;3.55;3.25;;;;;;;16.88;62.64;102097.72;5048541;28;20052;-82
2022/08/11 02:09:58;;;;;;;4.35;3.53;;;;;;;16.84;64.55;102093.91;5048426;28;20044;-82
2022/08/11 02:12:40;;;;;;;8.75;3.78;;;;;;;16.83;63.90;102092.28;5047348;28;20071;-82
2022/08/11 02:15:27;;;;;;;8.32;3.63;;;;;;;16.75;63.96;102089.03;5049950;28;20025;-82
2022/08/11 02:18:09;;;;;;;5.68;3.60;;;;;;;16.72;63.94;102077.91;5043071;28;20025;-81
2022/08/11 02:23:53;;;;;;;4.65;3.42;;;;;;;16.70;64.11;102088.22;5045908;28;20491;-81
2022/08/11 02:26:26;;;;;;;5.28;3.50;;;;;;;16.65;64.46;102094.41;5048587;28;20039;-81
2022/08/11 02:29:20;;;;;;;6.83;3.20;;;;;;;16.60;64.62;102083.63;5050043;28;20033;-80
2022/08/11 02:35:18;;;;;;;5.60;3.20;;;;;;;16.54;64.13;102088.19;5049105;28;20039;-81
2022/08/11 02:38:17;;;;;;;4.93;3.42;;;;;;;16.49;64.16;102089.00;5048818;28;20052;-81
2022/08/11 02:40:58;;;;;;;5.07;3.40;;;;;;;16.41;65.00;102072.47;5046668;28;20114;-81
2022/08/11 02:43:42;;;;;;;6.32;3.20;;;;;;;16.43;65.42;102079.22;5049003;28;20047;-81
2022/08/11 02:46:30;;;;;;;5.88;3.35;;;;;;;16.34;65.05;102070.03;5049841;28;20029;-81
2022/08/11 02:52:13;;;;;;;4.75;3.20;;;;;;;16.29;66.24;102070.00;5049037;28;20063;-83
2022/08/11 02:54:46;;;;;;;12.02;3.35;;;;;;;16.23;66.24;102076.47;5048746;28;20037;-83
2022/08/11 02:57:17;;;;;;;7.33;3.70;;;;;;;16.25;65.52;102080.53;5049008;28;20170;-81
2022/08/11 02:59:50;;;;;;;4.20;3.40;;;;;;;16.10;66.80;102070.47;5048344;28;20295;-82
2022/08/11 03:02:30;;;;;;;4.43;3.40;;;;;;;16.11;66.12;102079.41;5049008;28;20033;-81
2022/08/11 03:05:10;;;;;;;4.28;3.78;;;;;;;16.08;66.28;102083.44;5048443;28;20086;-82
2022/08/11 03:08:05;;;;;;;5.47;3.78;;;;;;;16.02;66.99;102076.41;5049700;28;20039;-81
2022/08/11 03:10:40;;;;;;;6.13;3.40;;;;;;;15.96;67.24;102075.56;5051132;28;20068;-81
2022/08/11 03:19:45;;;;;;;5.70;3.90;;;;;;;15.75;67.72;102072.75;5054152;28;20095;-82
2022/08/11 03:22:37;;;;;;;4.68;3.70;;;;;;;15.79;67.34;102081.13;5053268;28;20033;-82
2022/08/11 03:25:19;;;;;;;7.30;3.53;;;;;;;15.74;68.53;102081.09;5034085;28;20076;-81
2022/08/11 03:27:59;;;;;;;6.03;3.70;;;;;;;15.69;68.95;102073.00;5041964;28;20489;-81
2022/08/11 03:30:33;;;;;;;5.55;3.72;;;;;;;15.58;69.71;102072.91;5033269;28;20067;-81
2022/08/11 03:36:24;;;;;;;8.10;4.10;;;;;;;15.64;68.51;102081.06;5053658;28;20504;-81
2022/08/11 03:39:07;;;;;;;6.35;3.50;;;;;;;15.66;68.78;102089.72;5052874;28;20064;-81
2022/08/11 03:41:43;;;;;;;7.93;3.83;;;;;;;15.61;68.80;102082.41;5052827;28;20040;-81
2022/08/11 03:44:42;;;;;;;4.40;3.92;;;;;;;15.57;68.27;102086.69;5053524;28;20025;-81
2022/08/11 03:47:32;;;;;;;4.88;4.18;;;;;;;15.56;68.35;102085.06;5052500;28;20037;-81
2022/08/11 03:49:58;;;;;;;7.68;4.50;;;;;;;15.54;69.60;102077.19;5050884;28;20119;-81
2022/08/11 03:52:44;;;;;;;6.37;3.90;;;;;;;15.51;68.99;102082.31;5053277;28;20063;-81
2022/08/11 03:55:20;;;;;;;9.15;3.88;;;;;;;15.46;69.58;102077.72;5053425;28;20427;-82
2022/08/11 03:58:23;;;;;;;4.97;4.23;;;;;;;15.44;68.76;102077.94;5051909;28;20395;-82
2022/08/11 04:00:54;;;;;;;10.50;4.30;;;;;;;15.42;69.73;102076.59;5052469;28;20279;-81
2022/08/11 04:03:51;;;;;;;7.43;3.80;;;;;;;15.39;69.24;102069.84;5035232;28;20033;-82
2022/08/11 04:06:47;;;;;;;9.77;4.40;;;;;;;15.42;69.42;102079.28;5052929;28;20069;-81
2022/08/11 04:09:37;;;;;;;8.07;4.47;;;;;;;15.40;69.72;102066.06;5052418;28;20087;-82
2022/08/11 04:12:41;;;;;;;7.30;4.03;;;;;;;15.34;68.96;102067.09;5034689;28;20039;-82
2022/08/11 04:18:46;;;;;;;8.80;4.10;;;;;;;15.23;68.94;102060.81;5051525;28;20118;-81
2022/08/11 04:21:49;;;;;;;7.22;4.30;;;;;;;15.26;69.71;102065.69;5051546;28;20036;-81
2022/08/11 04:24:43;;;;;;;5.43;4.05;;;;;;;15.23;69.63;102060.81;5034153;28;20055;-81
2022/08/11 04:27:29;;;;;;;8.03;4.50;;;;;;;15.23;69.93;102068.09;5051342;28;20021;-81
2022/08/11 04:30:27;;;;;;;5.63;4.57;;;;;;;15.20;70.14;102068.63;5051358;28;20295;-81
2022/08/11 04:33:14;;;;;;;6.75;4.45;;;;;;;15.23;71.21;102071.59;5051954;28;20045;-82
2022/08/11 04:36:01;;;;;;;11.50;4.35;;;;;;;15.19;71.49;102081.28;5052257;28;20032;-81
2022/08/11 04:38:54;;;;;;;6.70;4.65;;;;;;;15.20;71.15;102072.13;5049388;28;20408;-81
2022/08/11 04:41:32;;;;;;;6.00;4.63;;;;;;;15.17;71.58;102071.81;5052102;28;20033;-81
2022/08/11 04:44:31;;;;;;;5.18;4.00;;;;;;;15.21;70.89;102071.03;5051815;28;20035;-81
2022/08/11 05:02:59;;;;;;;10.55;4.68;;;;;;;15.35;70.76;102074.13;5052006;28;20036;-82
2022/08/11 05:05:51;;;;;;;10.05;4.90;;;;;;;15.47;71.12;102070.41;5051969;28;20029;-82
2022/08/11 05:08:32;;;;;;;7.63;4.72;;;;;;;15.53;71.65;102075.56;5050173;28;20021;-82
2022/08/11 05:11:20;;;;;;;8.30;4.97;;;;;;;15.58;71.48;102077.50;5051153;28;20377;-82
2022/08/11 05:34:52;;;;;;;8.82;5.05;;;;;;;18.24;63.36;102089.91;5031461;28;20096;-83
2022/08/11 05:37:33;;;;;;;8.18;4.88;;;;;;;18.41;62.03;102078.66;5045065;28;20025;-83
2022/08/11 05:57:25;;;;;;;5.80;4.57;;;;;;;18.00;64.30;102092.44;5049336;28;22524;-82
2022/08/11 05:59:59;;;;;;;11.55;4.60;;;;;;;17.93;64.14;102084.56;5048052;28;20040;-84
2022/08/11 06:02:25;;;;;;;8.25;4.97;;;;;;;17.95;64.79;102085.09;5050311;28;20024;-83
2022/08/11 06:04:57;;;;;;;6.22;5.15;;;;;;;17.98;65.00;102095.44;5050628;28;20033;-83
2022/08/11 06:07:28;;;;;;;9.43;5.07;;;;;;;18.05;64.45;102091.63;5049134;28;20100;-84
2022/08/11 06:09:54;;;;;;;7.95;4.95;;;;;;;18.07;64.85;102084.81;5050258;28;20032;-84
2022/08/11 06:12:27;;;;;;;9.57;4.63;;;;;;;18.13;65.16;102080.19;5046043;28;20112;-83
2022/08/11 06:14:54;;;;;;;15.18;5.25;;;;;;;18.24;64.56;102091.78;5049772;28;20032;-83
2022/08/11 06:17:25;;;;;;;8.75;5.50;;;;;;;18.30;64.62;102088.75;5045896;28;20025;-83
2022/08/11 06:20:02;;;;;;;8.50;4.90;;;;;;;18.40;64.08;102089.81;5039764;28;20036;-83
2022/08/11 06:22:29;;;;;;;13.87;4.93;;;;;;;18.54;63.55;102090.81;5029602;28;20345;-82
2022/08/11 06:24:59;;;;;;;7.57;4.85;;;;;;;18.64;63.23;102094.53;5041738;28;20037;-83
2022/08/11 06:27:28;;;;;;;11.32;4.55;;;;;;;18.74;62.73;102091.75;5048442;28;20021;-83
2022/08/11 06:29:56;;;;;;;7.10;5.10;;;;;;;18.82;63.19;102093.84;5049404;28;20163;-83
2022/08/11 06:32:31;;;;;;;7.65;4.90;;;;;;;18.92;62.29;102099.22;5045149;28;20764;-82
2022/08/11 06:35:18;;;;;;;9.75;5.00;;;;;;;19.03;61.71;102099.16;5049330;28;20056;-82
2022/08/11 06:38:08;;;;;;;6.90;4.75;;;;;;;19.15;61.53;102101.50;5045017;28;20063;-82
2022/08/11 06:41:29;;;;;;;14.25;5.38;;;;;;;19.27;60.90;102095.69;5045791;28;20021;-83
2022/08/11 06:44:11;;;;;;;5.88;4.82;;;;;;;19.40;61.05;102096.94;5050854;28;20120;-84
2022/08/11 06:46:45;;;;;;;7.33;4.53;;;;;;;19.58;60.23;102095.38;5052384;28;20040;-86
2022/08/11 06:52:03;;;;;;;8.02;4.90;;;;;;;19.80;59.71;102098.41;5053132;28;20040;-85
2022/08/11 06:54:48;;;;;;;8.77;5.25;;;;;;;19.93;59.70;102109.72;5052776;28;20033;-84
2022/08/11 07:03:10;;;;;;;8.20;4.70;;;;;;;20.36;57.99;102109.72;4987078;28;20042;-85
2022/08/11 07:05:50;;;;;;;8.63;4.90;;;;;;;20.48;58.72;102113.91;5037679;28;20045;-86
2022/08/11 07:29:01;;;;;;;7.80;4.50;;;;;;;21.53;54.58;102104.59;5051921;28;20075;-85
2022/08/11 07:32:02;;;;;;;7.20;4.40;;;;;;;21.70;54.85;102104.00;5052000;28;20082;-85
2022/08/11 07:34:33;;;;;;;10.25;5.22;;;;;;;21.77;53.87;102098.97;5040216;28;20045;-84
2022/08/11 07:37:07;;;;;;;7.47;4.72;;;;;;;21.92;53.72;102113.41;5034521;28;20086;-84
2022/08/11 07:39:35;;;;;;;10.40;4.45;;;;;;;22.06;53.39;102107.94;5034026;28;20017;-84
2022/08/11 07:42:09;;;;;;;6.07;4.10;;;;;;;22.25;52.28;102107.78;5052160;28;20024;-84
2022/08/11 07:53:07;;;;;;;6.53;4.70;;;;;;;22.66;49.67;102114.28;5052298;28;20127;-84
2022/08/11 07:55:34;;;;;;;8.90;4.03;;;;;;;22.75;50.31;102115.16;5034589;28;20116;-84
2022/08/11 08:22:14;;;;;;;7.63;3.88;;;;;;;24.03;45.41;102107.44;5835457;22;20130;-83
2022/08/11 08:24:40;;;;;;;8.63;4.22;;;;;;;24.16;44.86;102104.88;5069736;28;20033;-83
2022/08/11 08:27:08;;;;;;;7.53;4.40;;;;;;;24.22;44.57;102098.13;5054065;28;20039;-83
2022/08/11 08:32:20;;;;;;;7.03;4.07;;;;;;;24.45;43.89;102103.47;5068392;28;20047;-84
2022/08/11 08:34:49;;;;;;;7.70;4.57;;;;;;;24.50;44.43;102104.09;5071876;28;20287;-84
2022/08/11 08:37:17;;;;;;;8.68;4.40;;;;;;;24.65;43.76;102111.00;5071801;28;20027;-83
2022/08/11 08:39:44;;;;;;;10.50;4.50;;;;;;;24.69;43.43;102104.88;5071751;28;20464;-84
2022/08/11 08:42:16;;;;;;;8.50;4.70;;;;;;;24.70;43.76;102107.34;5056968;28;20036;-84
2022/08/11 08:44:46;;;;;;;7.43;4.85;;;;;;;24.69;43.38;102102.97;5051384;28;20070;-84
2022/08/11 08:47:17;;;;;;;6.63;4.68;;;;;;;24.77;43.93;102113.13;5051685;28;20025;-84
2022/08/11 08:49:50;;;;;;;9.07;4.50;;;;;;;24.92;43.56;102106.34;5051496;28;20676;-84
2022/08/11 08:52:21;;;;;;;10.52;4.22;;;;;;;24.98;44.07;102104.22;5057373;28;20032;-83
2022/08/11 08:54:52;;;;;;;6.37;3.90;;;;;;;25.15;44.04;102103.38;5071609;28;20028;-84
2022/08/11 08:57:20;;;;;;;7.23;4.47;;;;;;;25.26;43.83;102103.84;5053409;28;20778;-83
2022/08/11 08:59:48;;;;;;;7.72;4.30;;;;;;;25.29;42.28;102099.63;5049156;28;20067;-84
2022/08/11 09:02:14;;;;;;;9.60;4.43;;;;;;;25.45;43.06;102105.41;5056752;28;20028;-84
2022/08/11 09:04:42;;;;;;;5.60;4.32;;;;;;;25.61;42.53;102098.25;5064880;28;20079;-83
2022/08/11 09:07:14;;;;;;;6.43;4.18;;;;;;;25.74;43.10;102093.66;5048846;28;20037;-83
2022/08/11 09:09:51;;;;;;;9.43;4.57;;;;;;;25.83;42.06;102097.13;5043897;28;20044;-82
2022/08/11 09:12:19;;;;;;;7.40;4.23;;;;;;;25.88;41.30;102098.09;5028479;28;20033;-82
2022/08/11 09:15:02;;;;;;;7.10;4.30;;;;;;;26.04;40.35;102101.03;5049065;28;20302;-82
2022/08/11 09:17:48;;;;;;;6.70;4.28;;;;;;;26.17;40.58;102099.22;5048257;28;20051;-83
2022/08/11 09:20:19;;;;;;;7.95;4.05;;;;;;;26.35;41.21;102097.16;5053213;28;20039;-82
2022/08/11 09:28:20;;;;;;;5.93;3.60;;;;;;;26.86;37.94;102092.31;5050941;28;20534;-82
2022/08/11 09:30:55;;;;;;;7.47;3.47;;;;;;;26.95;38.40;102091.41;5047597;28;20092;-83
2022/08/11 09:33:23;;;;;;;5.88;3.13;;;;;;;27.05;37.08;102089.03;5054471;28;20437;-82
2022/08/11 09:35:51;;;;;;;10.80;3.70;;;;;;;27.16;36.06;102085.84;5049228;28;20041;-83
2022/08/11 09:41:04;;;;;;;6.47;3.40;;;;;;;27.50;35.24;102086.59;5041121;28;20291;-87
2022/08/11 09:46:15;;;;;;;6.93;3.67;;;;;;;27.87;34.67;102072.78;5049366;28;20077;-85
2022/08/11 09:48:45;;;;;;;16.90;4.07;;;;;;;27.91;34.99;102072.88;5050900;28;20060;-87
2022/08/11 09:51:11;;;;;;;4.82;3.45;;;;;;;27.94;33.30;102078.50;5046519;28;20061;-87
2022/08/11 09:53:40;;;;;;;10.93;3.38;;;;;;;27.94;33.95;102077.72;5056668;28;20017;-87
2022/08/11 09:58:55;;;;;;;7.95;3.67;;;;;;;28.24;35.14;102075.47;5051161;28;20103;-85
2022/08/11 10:01:29;;;;;;;11.45;3.70;;;;;;;28.44;35.30;102067.38;5048949;28;20028;-83
2022/08/11 10:04:04;;;;;;;8.90;3.40;;;;;;;28.50;34.64;102071.44;5053087;28;20052;-84
2022/08/11 10:09:21;;;;;;;6.75;3.10;;;;;;;28.47;33.47;102065.84;5041055;28;20072;-84
2022/08/11 10:11:49;;;;;;;7.43;3.70;;;;;;;28.74;34.20;102063.47;5050609;28;20669;-84
2022/08/11 10:17:06;;;;;;;7.35;3.40;;;;;;;28.92;33.91;102061.16;5064767;28;20506;-83
2022/08/11 10:19:35;;;;;;;14.48;3.65;;;;;;;29.21;32.66;102059.91;5049840;28;20028;-82
2022/08/11 10:27:34;;;;;;;9.18;3.30;;;;;;;29.40;30.90;102061.16;5043163;28;20629;-85
2022/08/11 10:35:31;;;;;;;6.82;3.10;;;;;;;29.55;31.03;102049.28;5029693;28;20111;-84
2022/08/11 10:37:58;;;;;;;4.53;3.58;;;;;;;29.49;30.43;102045.19;5030579;28;20136;-83
2022/08/11 10:58:49;;;;;;;5.23;3.77;;;;;;;30.32;29.03;102041.44;5076993;22;20262;-83
2022/08/11 11:01:21;;;;;;;9.18;3.45;;;;;;;30.41;28.71;102034.88;5046865;28;20079;-83
2022/08/11 11:03:47;;;;;;;7.47;3.30;;;;;;;30.57;28.13;102035.59;5035909;28;20036;-84
2022/08/11 11:06:43;;;;;;;4.82;3.13;;;;;;;30.72;28.90;102033.91;5050994;28;20033;-83
2022/08/11 11:09:31;;;;;;;6.55;3.38;;;;;;;30.78;28.78;102020.56;5049289;28;20061;-83
2022/08/11 11:17:55;;;;;;;8.75;3.53;;;;;;;30.86;28.85;102027.78;5009735;28;20101;-83
2022/08/11 11:20:29;;;;;;;6.75;3.50;;;;;;;30.91;27.13;102024.72;5026255;28;20052;-84
2022/08/11 11:22:59;;;;;;;4.30;3.53;;;;;;;30.99;26.90;102014.56;5028572;28;20033;-84
2022/08/11 11:25:38;;;;;;;6.23;3.63;;;;;;;31.04;27.54;102017.03;5032694;28;20292;-84
2022/08/11 11:28:43;;;;;;;9.55;2.97;;;;;;;31.16;28.37;102018.00;5030242;28;20057;-84
2022/08/11 11:31:30;;;;;;;4.20;2.65;;;;;;;31.26;26.69;102011.84;5031475;28;20493;-84
2022/08/11 11:34:27;;;;;;;7.07;3.28;;;;;;;31.35;26.80;102000.50;5040403;28;20036;-84
2022/08/11 11:36:57;;;;;;;8.23;3.40;;;;;;;31.29;27.40;102004.75;5038408;28;20536;-82
2022/08/11 11:39:25;;;;;;;7.13;3.15;;;;;;;31.41;26.59;102012.84;5052059;28;20044;-83
2022/08/11 11:41:53;;;;;;;6.38;3.50;;;;;;;31.59;25.98;102001.22;5046342;28;20030;-83
2022/08/11 11:44:21;;;;;;;5.85;3.03;;;;;;;31.51;24.25;101994.78;5050142;28;20025;-83
2022/08/11 11:46:49;;;;;;;11.85;3.03;;;;;;;31.66;23.29;101996.59;5051763;28;20032;-83
2022/08/11 11:49:18;;;;;;;4.97;2.73;;;;;;;31.72;23.60;101995.09;5017186;28;20026;-84
2022/08/11 11:51:45;;;;;;;4.13;2.60;;;;;;;31.71;23.73;101998.25;5022649;28;20327;-84
2022/08/11 11:54:14;;;;;;;4.53;2.63;;;;;;;31.90;24.05;101988.19;5040046;28;20094;-84
2022/08/11 11:56:41;;;;;;;6.25;2.47;;;;;;;32.21;22.90;102003.56;5053103;28;20021;-83
2022/08/11 12:01:54;;;;;;;7.25;3.03;;;;;;;32.35;22.81;101985.50;5052829;28;20044;-83
2022/08/11 12:04:21;;;;;;;6.43;2.75;;;;;;;32.35;23.06;101988.28;5050936;28;20374;-83
2022/08/11 12:06:47;;;;;;;17.05;3.80;;;;;;;32.37;22.57;101989.50;5017308;28;20026;-83
2022/08/11 12:09:17;;;;;;;9.95;3.45;;;;;;;32.34;22.63;101987.47;4994804;28;20508;-83
2022/08/11 12:14:28;;;;;;;2.63;2.43;;;;;;;32.57;22.20;101979.00;5029358;28;20082;-83
2022/08/11 12:16:56;;;;;;;3.23;2.70;;;;;;;32.75;23.32;101981.91;5040602;28;20360;-82
2022/08/11 12:19:27;;;;;;;4.00;2.92;;;;;;;32.75;22.61;101981.91;5044816;28;20029;-81
2022/08/11 12:27:28;;;;;;;7.20;3.22;;;;;;;32.75;23.16;101970.78;5036156;28;20095;-83
2022/08/11 12:29:59;;;;;;;5.13;3.35;;;;;;;32.69;22.35;101966.00;5029133;28;20064;-84
2022/08/11 12:32:28;;;;;;;4.60;3.35;;;;;;;32.86;22.31;101948.72;5031907;28;20036;-84
2022/08/11 12:34:56;;;;;;;9.70;2.80;;;;;;;33.01;22.35;101955.16;5031161;28;20030;-82
2022/08/11 12:37:28;;;;;;;3.13;2.83;;;;;;;33.09;22.40;101961.53;5031574;28;20063;-83
2022/08/11 12:45:30;;;;;;;8.07;3.20;;;;;;;33.10;21.79;101934.56;5040781;28;20047;-83
2022/08/11 12:54:07;;;;;;;5.30;3.88;;;;;;;33.02;21.84;101936.50;5026331;28;20565;-83
2022/08/11 13:05:04;;;;;;;3.47;3.17;;;;;;;33.50;21.27;101927.25;5036750;28;20420;-83
2022/08/11 13:07:32;;;;;;;8.37;3.20;;;;;;;33.40;21.58;101917.69;5030213;28;20040;-82
2022/08/11 13:10:00;;;;;;;3.80;2.80;;;;;;;33.50;22.24;101913.38;5024273;28;20297;-83
2022/08/11 13:15:16;;;;;;;5.47;3.63;;;;;;;33.80;22.05;101912.25;5042555;28;20047;-83
2022/08/11 13:17:41;;;;;;;7.60;3.25;;;;;;;33.80;21.80;101903.91;5051372;28;20029;-83
2022/08/11 13:22:44;;;;;;;4.93;3.67;;;;;;;33.61;22.22;101903.06;5114449;22;20130;-83
2022/08/11 13:25:14;;;;;;;5.53;3.80;;;;;;;33.50;21.46;101902.25;5070541;28;20360;-83
2022/08/11 13:27:41;;;;;;;5.47;3.05;;;;;;;33.59;21.76;101894.38;5070718;28;20036;-83
2022/08/11 13:32:51;;;;;;;6.07;3.47;;;;;;;33.81;21.78;101895.19;5071167;28;20040;-83
2022/08/11 13:35:17;;;;;;;4.00;3.25;;;;;;;33.65;21.82;101892.00;5069239;28;20032;-83
2022/08/11 13:37:47;;;;;;;4.68;3.65;;;;;;;33.68;21.75;101886.44;5070421;28;20020;-82
2022/08/11 13:40:16;;;;;;;6.97;3.90;;;;;;;33.95;22.24;101894.47;5052637;28;20476;-82
2022/08/11 13:42:43;;;;;;;4.07;2.97;;;;;;;34.15;21.48;101896.06;5070531;28;20027;-82
2022/08/11 13:45:09;;;;;;;7.20;3.50;;;;;;;34.01;20.92;101891.28;5069369;28;20499;-83
2022/08/11 13:47:36;;;;;;;7.20;3.45;;;;;;;34.03;20.66;101884.16;5070052;28;20050;-82
2022/08/11 13:52:40;;;;;;;5.63;3.08;;;;;;;34.34;21.19;101876.19;5116982;22;20083;-83
2022/08/11 13:55:07;;;;;;;3.90;3.10;;;;;;;34.53;21.37;101885.34;5069566;28;20552;-82
2022/08/11 13:57:34;;;;;;;5.47;3.33;;;;;;;34.70;21.26;101870.59;5069875;28;20020;-83
2022/08/11 14:00:09;;;;;;;4.45;4.00;;;;;;;34.57;20.69;101864.66;5070042;28;20048;-83
2022/08/11 14:02:38;;;;;;;6.67;3.50;;;;;;;34.43;20.42;101867.47;5069944;28;20393;-82
2022/08/11 14:05:22;;;;;;;7.67;3.40;;;;;;;34.33;20.32;101876.59;5067515;28;20302;-82
2022/08/11 14:08:01;;;;;;;4.93;3.20;;;;;;;34.36;21.21;101867.44;5070339;28;20107;-82
2022/08/11 14:10:29;;;;;;;8.07;3.63;;;;;;;34.20;20.47;101870.66;5069653;28;20062;-83
2022/08/11 14:15:47;;;;;;;5.68;3.92;;;;;;;34.05;20.75;101861.50;5067453;28;20044;-82
2022/08/11 14:18:26;;;;;;;5.55;3.90;;;;;;;34.05;20.85;101864.28;5070083;28;20032;-82
2022/08/11 14:23:44;;;;;;;8.88;3.85;;;;;;;33.97;21.34;101860.72;5070125;28;20043;-82
2022/08/11 14:26:25;;;;;;;6.15;3.67;;;;;;;34.16;20.93;101865.06;5068236;28;20112;-82
2022/08/11 14:28:54;;;;;;;3.83;3.50;;;;;;;34.24;21.38;101860.28;5055613;28;20033;-82
2022/08/11 14:31:22;;;;;;;5.77;3.63;;;;;;;34.16;20.78;101858.72;5048632;28;20264;-83
2022/08/11 14:33:48;;;;;;;6.70;4.00;;;;;;;34.32;21.05;101858.34;5049033;28;20047;-83
2022/08/11 14:36:14;;;;;;;5.78;4.07;;;;;;;34.31;20.91;101848.41;5061824;28;20094;-82
2022/08/11 14:38:41;;;;;;;6.80;3.97;;;;;;;34.36;21.05;101854.34;5069727;28;20107;-83
2022/08/11 14:49:26;;;;;;;6.40;3.35;;;;;;;34.37;20.14;101844.00;5068646;28;20036;-82
2022/08/11 14:51:55;;;;;;;10.25;3.72;;;;;;;34.16;20.42;101828.13;5069138;28;20051;-83
2022/08/11 14:57:13;;;;;;;5.82;3.47;;;;;;;34.47;20.85;101836.88;5069809;28;20399;-82
2022/08/11 14:59:41;;;;;;;9.23;3.72;;;;;;;34.26;20.47;101836.47;5069434;28;20028;-83
2022/08/11 15:04:51;;;;;;;6.95;3.53;;;;;;;34.45;20.43;101814.22;5070025;28;20035;-82
2022/08/11 15:07:18;;;;;;;4.03;3.55;;;;;;;34.55;19.53;101825.31;5072860;28;20411;-82
2022/08/11 15:09:44;;;;;;;6.10;3.33;;;;;;;34.63;19.76;101816.97;5072826;28;20021;-82
2022/08/11 15:12:17;;;;;;;5.13;3.40;;;;;;;34.48;19.85;101818.97;5073632;28;20282;-82
2022/08/11 15:17:32;;;;;;;4.35;3.63;;;;;;;34.68;19.74;101820.13;5073214;28;20031;-82
2022/08/11 15:25:33;;;;;;;7.78;4.07;;;;;;;34.68;18.73;101811.78;5070044;28;20510;-82
2022/08/11 15:39:15;;;;;;;6.35;3.35;;;;;;;34.95;19.44;101786.28;5056684;28;20559;-84
2022/08/11 15:47:24;;;;;;;6.18;3.20;;;;;;;34.96;19.26;101796.22;5072842;28;20090;-83
2022/08/11 15:49:53;;;;;;;4.43;2.67;;;;;;;34.95;19.31;101786.28;5049249;28;20017;-81
2022/08/11 15:52:23;;;;;;;7.07;4.03;;;;;;;35.06;17.71;101775.06;5046914;28;20108;-82
2022/08/11 15:54:52;;;;;;;3.88;3.45;;;;;;;35.00;18.13;101783.03;5049045;28;20131;-82
2022/08/11 16:05:22;;;;;;;5.03;3.35;;;;;;;35.36;18.24;101782.06;5050951;28;20366;-83
2022/08/11 16:07:54;;;;;;;5.25;3.45;;;;;;;35.47;18.95;101782.03;5057545;28;20104;-82
2022/08/11 16:10:22;;;;;;;4.10;3.50;;;;;;;35.30;18.53;101778.91;5058651;28;20468;-83
2022/08/11 16:18:40;;;;;;;5.10;4.00;;;;;;;35.13;19.33;101763.09;5050516;28;20063;-83
2022/08/11 16:21:09;;;;;;;10.70;4.07;;;;;;;35.32;19.70;101764.56;5052588;28;20040;-82
2022/08/11 16:23:37;;;;;;;6.27;4.10;;;;;;;35.02;19.19;101758.38;5071234;28;20058;-83
2022/08/11 16:26:05;;;;;;;7.57;3.80;;;;;;;35.00;19.65;101762.78;5054684;28;20305;-82
2022/08/11 16:28:32;;;;;;;5.20;3.75;;;;;;;35.14;19.11;101762.69;5043057;28;20033;-82
2022/08/11 16:30:59;;;;;;;5.85;3.58;;;;;;;35.29;19.09;101755.03;5049893;28;20416;-83
2022/08/11 16:33:26;;;;;;;6.50;3.80;;;;;;;35.20;19.27;101756.69;5048193;28;20036;-82
2022/08/11 16:38:38;;;;;;;5.68;4.38;;;;;;;35.44;18.91;101760.50;5043154;28;20142;-83
2022/08/11 16:41:12;;;;;;;8.38;3.80;;;;;;;35.10;19.24;101755.56;5050320;28;20480;-84
2022/08/11 16:49:25;;;;;;;6.23;3.23;;;;;;;35.05;20.07;101745.66;5072005;28;20079;-83
2022/08/11 16:51:51;;;;;;;6.10;3.70;;;;;;;35.06;20.23;101747.22;5072146;28;20305;-83
2022/08/11 16:54:17;;;;;;;6.80;3.72;;;;;;;35.00;20.13;101741.28;5060093;28;20050;-83
2022/08/11 16:56:47;;;;;;;7.60;3.55;;;;;;;35.14;20.10;101751.56;5067529;28;20112;-83
2022/08/11 16:59:21;;;;;;;4.55;4.15;;;;;;;35.50;21.07;101742.19;5055057;28;20029;-82
2022/08/11 17:01:51;;;;;;;4.45;3.50;;;;;;;35.13;21.06;101736.03;5068620;28;20028;-82
2022/08/11 17:13:08;;;;;;;6.32;3.78;;;;;;;34.74;20.67;101728.66;5067888;28;20043;-83
2022/08/11 17:18:41;;;;;;;5.43;3.77;;;;;;;34.57;20.34;101733.91;5070319;28;20316;-82
2022/08/11 17:21:11;;;;;;;4.00;3.70;;;;;;;34.26;20.42;101730.00;5052974;28;20021;-83
2022/08/11 17:23:46;;;;;;;9.43;4.20;;;;;;;34.18;20.75;101740.34;5069516;28;20361;-83